sensor_id;sensor_type;location;lat;lon;timestamp;temperature;humidity
20400;DHT22;10359;53.596;22.520;2022-10-14T00:01:47;2.50;99.90
20400;DHT22;10359;53.596;22.520;2022-10-14T00:04:17;2.50;99.90
20400;DHT22;10359;53.596;22.520;2022-10-14T00:06:46;2.50;99.90
20400;DHT22;10359;53.596;22.520;2022-10-14T00:09:22;2.50;99.90
20400;DHT22;10359;53.596;22.520;2022-10-14T00:11:58;2.50;99.90
20400;DHT22;10359;53.596;22.520;2022-10-14T00:14:30;2.40;99.90
20400;DHT22;10359;53.596;22.520;2022-10-14T00:16:59;2.40;99.90
20400;DHT22;10359;53.596;22.520;2022-10-14T00:19:29;2.30;99.90
20400;DHT22;10359;53.596;22.520;2022-10-14T00:21:58;2.30;99.90
20400;DHT22;10359;53.596;22.520;2022-10-14T00:24:27;2.20;99.90
20400;DHT22;10359;53.596;22.520;2022-10-14T00:26:56;2.20;99.90
20400;DHT22;10359;53.596;22.520;2022-10-14T00:29:25;2.20;99.90
20400;DHT22;10359;53.596;22.520;2022-10-14T00:31:53;2.10;99.90
20400;DHT22;10359;53.596;22.520;2022-10-14T00:34:22;2.10;99.90
20400;DHT22;10359;53.596;22.520;2022-10-14T00:36:52;2.10;99.90
20400;DHT22;10359;53.596;22.520;2022-10-14T00:39:21;2.10;99.90
20400;DHT22;10359;53.596;22.520;2022-10-14T00:41:50;2.10;99.90
20400;DHT22;10359;53.596;22.520;2022-10-14T00:47:34;2.10;99.90
20400;DHT22;10359;53.596;22.520;2022-10-14T00:50:03;2.10;99.90
20400;DHT22;10359;53.596;22.520;2022-10-14T00:52:34;2.10;99.90
20400;DHT22;10359;53.596;22.520;2022-10-14T00:55:06;2.10;99.90
20400;DHT22;10359;53.596;22.520;2022-10-14T00:57:35;2.10;99.90
20400;DHT22;10359;53.596;22.520;2022-10-14T01:00:07;2.20;99.90
20400;DHT22;10359;53.596;22.520;2022-10-14T01:02:37;2.20;99.90
20400;DHT22;10359;53.596;22.520;2022-10-14T01:05:08;2.20;99.90
20400;DHT22;10359;53.596;22.520;2022-10-14T01:07:46;2.20;99.90
20400;DHT22;10359;53.596;22.520;2022-10-14T01:10:25;2.20;99.90
20400;DHT22;10359;53.596;22.520;2022-10-14T01:13:07;2.10;99.90
20400;DHT22;10359;53.596;22.520;2022-10-14T01:15:42;2.10;99.90
20400;DHT22;10359;53.596;22.520;2022-10-14T01:18:19;2.00;99.90
20400;DHT22;10359;53.596;22.520;2022-10-14T01:21:15;1.90;99.90
20400;DHT22;10359;53.596;22.520;2022-10-14T01:24:12;1.90;99.90
20400;DHT22;10359;53.596;22.520;2022-10-14T01:30:08;1.80;99.90
20400;DHT22;10359;53.596;22.520;2022-10-14T01:32:47;1.70;99.90
20400;DHT22;10359;53.596;22.520;2022-10-14T01:35:24;1.70;99.90
20400;DHT22;10359;53.596;22.520;2022-10-14T01:37:58;1.70;99.90
20400;DHT22;10359;53.596;22.520;2022-10-14T01:40:32;1.70;99.90
20400;DHT22;10359;53.596;22.520;2022-10-14T01:43:03;1.70;99.90
20400;DHT22;10359;53.596;22.520;2022-10-14T01:45:36;1.70;99.90
20400;DHT22;10359;53.596;22.520;2022-10-14T01:48:07;1.70;99.90
20400;DHT22;10359;53.596;22.520;2022-10-14T01:50:38;1.60;99.90
20400;DHT22;10359;53.596;22.520;2022-10-14T01:53:10;1.60;99.90
20400;DHT22;10359;53.596;22.520;2022-10-14T01:55:43;1.60;99.90
20400;DHT22;10359;53.596;22.520;2022-10-14T01:58:15;1.50;99.90
20400;DHT22;10359;53.596;22.520;2022-10-14T02:00:45;1.60;99.90
20400;DHT22;10359;53.596;22.520;2022-10-14T02:03:15;1.50;99.90
20400;DHT22;10359;53.596;22.520;2022-10-14T02:05:49;1.50;99.90
20400;DHT22;10359;53.596;22.520;2022-10-14T02:08:24;1.50;99.90
20400;DHT22;10359;53.596;22.520;2022-10-14T02:13:46;1.40;99.90
20400;DHT22;10359;53.596;22.520;2022-10-14T02:16:23;1.40;99.90
20400;DHT22;10359;53.596;22.520;2022-10-14T02:19:00;1.40;99.90
20400;DHT22;10359;53.596;22.520;2022-10-14T02:21:36;1.40;99.90
20400;DHT22;10359;53.596;22.520;2022-10-14T02:24:09;1.40;99.90
20400;DHT22;10359;53.596;22.520;2022-10-14T02:26:42;1.30;99.90
20400;DHT22;10359;53.596;22.520;2022-10-14T02:29:12;1.30;99.90
20400;DHT22;10359;53.596;22.520;2022-10-14T02:31:44;1.30;99.90
20400;DHT22;10359;53.596;22.520;2022-10-14T02:34:18;1.40;99.90
20400;DHT22;10359;53.596;22.520;2022-10-14T02:36:49;1.40;99.90
20400;DHT22;10359;53.596;22.520;2022-10-14T02:39:23;1.40;99.90
20400;DHT22;10359;53.596;22.520;2022-10-14T02:41:53;1.40;99.90
20400;DHT22;10359;53.596;22.520;2022-10-14T02:44:23;1.50;99.90
20400;DHT22;10359;53.596;22.520;2022-10-14T02:46:55;1.50;99.90
20400;DHT22;10359;53.596;22.520;2022-10-14T02:49:25;1.50;99.90
20400;DHT22;10359;53.596;22.520;2022-10-14T02:51:55;1.50;99.90
20400;DHT22;10359;53.596;22.520;2022-10-14T02:54:25;1.50;99.90
20400;DHT22;10359;53.596;22.520;2022-10-14T02:56:55;1.50;99.90
20400;DHT22;10359;53.596;22.520;2022-10-14T02:59:25;1.50;99.90
20400;DHT22;10359;53.596;22.520;2022-10-14T03:01:57;1.50;99.90
20400;DHT22;10359;53.596;22.520;2022-10-14T03:04:27;1.50;99.90
20400;DHT22;10359;53.596;22.520;2022-10-14T03:06:57;1.40;99.90
20400;DHT22;10359;53.596;22.520;2022-10-14T03:09:26;1.40;99.90
20400;DHT22;10359;53.596;22.520;2022-10-14T03:11:58;1.40;99.90
20400;DHT22;10359;53.596;22.520;2022-10-14T03:14:27;1.40;99.90
20400;DHT22;10359;53.596;22.520;2022-10-14T03:16:59;1.50;99.90
20400;DHT22;10359;53.596;22.520;2022-10-14T03:19:28;1.50;99.90
20400;DHT22;10359;53.596;22.520;2022-10-14T03:21:58;1.50;99.90
20400;DHT22;10359;53.596;22.520;2022-10-14T03:24:28;1.50;99.90
20400;DHT22;10359;53.596;22.520;2022-10-14T03:26:57;1.40;99.90
20400;DHT22;10359;53.596;22.520;2022-10-14T03:29:27;1.40;99.90
20400;DHT22;10359;53.596;22.520;2022-10-14T03:31:56;1.40;99.90
20400;DHT22;10359;53.596;22.520;2022-10-14T03:34:28;1.40;99.90
20400;DHT22;10359;53.596;22.520;2022-10-14T03:36:58;1.30;99.90
20400;DHT22;10359;53.596;22.520;2022-10-14T03:39:27;1.30;99.90
20400;DHT22;10359;53.596;22.520;2022-10-14T03:41:56;1.30;99.90
20400;DHT22;10359;53.596;22.520;2022-10-14T03:44:26;1.30;99.90
20400;DHT22;10359;53.596;22.520;2022-10-14T03:46:58;1.30;99.90
20400;DHT22;10359;53.596;22.520;2022-10-14T03:49:29;1.30;99.90
20400;DHT22;10359;53.596;22.520;2022-10-14T03:51:58;1.30;99.90
20400;DHT22;10359;53.596;22.520;2022-10-14T03:54:27;1.30;99.90
20400;DHT22;10359;53.596;22.520;2022-10-14T03:56:56;1.20;99.90
20400;DHT22;10359;53.596;22.520;2022-10-14T03:59:26;1.20;99.90
20400;DHT22;10359;53.596;22.520;2022-10-14T04:01:55;1.20;99.90
20400;DHT22;10359;53.596;22.520;2022-10-14T04:04:25;1.20;99.90
20400;DHT22;10359;53.596;22.520;2022-10-14T04:06:56;1.20;99.90
20400;DHT22;10359;53.596;22.520;2022-10-14T04:09:25;1.20;99.90
20400;DHT22;10359;53.596;22.520;2022-10-14T04:11:55;1.20;99.90
20400;DHT22;10359;53.596;22.520;2022-10-14T04:14:25;1.10;99.90
20400;DHT22;10359;53.596;22.520;2022-10-14T04:16:54;1.10;99.90
20400;DHT22;10359;53.596;22.520;2022-10-14T04:19:23;1.10;99.90
20400;DHT22;10359;53.596;22.520;2022-10-14T04:21:55;1.10;99.90
20400;DHT22;10359;53.596;22.520;2022-10-14T04:24:23;1.20;99.90
20400;DHT22;10359;53.596;22.520;2022-10-14T04:26:52;1.20;99.90
20400;DHT22;10359;53.596;22.520;2022-10-14T04:29:22;1.10;99.90
20400;DHT22;10359;53.596;22.520;2022-10-14T04:31:51;1.10;99.90
20400;DHT22;10359;53.596;22.520;2022-10-14T04:34:21;1.20;99.90
20400;DHT22;10359;53.596;22.520;2022-10-14T04:36:51;1.10;99.90
20400;DHT22;10359;53.596;22.520;2022-10-14T04:39:22;1.20;99.90
20400;DHT22;10359;53.596;22.520;2022-10-14T04:41:50;1.10;99.90
20400;DHT22;10359;53.596;22.520;2022-10-14T04:44:19;1.10;99.90
20400;DHT22;10359;53.596;22.520;2022-10-14T04:46:48;1.10;99.90
20400;DHT22;10359;53.596;22.520;2022-10-14T04:49:17;1.10;99.90
20400;DHT22;10359;53.596;22.520;2022-10-14T04:51:46;1.10;99.90
20400;DHT22;10359;53.596;22.520;2022-10-14T04:54:15;1.10;99.90
20400;DHT22;10359;53.596;22.520;2022-10-14T04:56:46;1.10;99.90
20400;DHT22;10359;53.596;22.520;2022-10-14T04:59:15;1.10;99.90
20400;DHT22;10359;53.596;22.520;2022-10-14T05:01:45;1.20;99.90
20400;DHT22;10359;53.596;22.520;2022-10-14T05:04:14;1.20;99.90
20400;DHT22;10359;53.596;22.520;2022-10-14T05:06:44;1.20;99.90
20400;DHT22;10359;53.596;22.520;2022-10-14T05:09:13;1.20;99.90
20400;DHT22;10359;53.596;22.520;2022-10-14T05:11:42;1.20;99.90
20400;DHT22;10359;53.596;22.520;2022-10-14T05:14:13;1.20;99.90
20400;DHT22;10359;53.596;22.520;2022-10-14T05:16:42;1.10;99.90
20400;DHT22;10359;53.596;22.520;2022-10-14T05:19:11;1.10;99.90
20400;DHT22;10359;53.596;22.520;2022-10-14T05:21:41;1.20;99.90
20400;DHT22;10359;53.596;22.520;2022-10-14T05:24:10;1.20;99.90
20400;DHT22;10359;53.596;22.520;2022-10-14T05:26:39;1.30;99.90
20400;DHT22;10359;53.596;22.520;2022-10-14T05:29:09;1.40;99.90
20400;DHT22;10359;53.596;22.520;2022-10-14T05:31:39;1.40;99.90
20400;DHT22;10359;53.596;22.520;2022-10-14T05:34:08;1.40;99.90
20400;DHT22;10359;53.596;22.520;2022-10-14T05:36:37;1.50;99.90
20400;DHT22;10359;53.596;22.520;2022-10-14T05:39:06;1.60;99.90
20400;DHT22;10359;53.596;22.520;2022-10-14T05:41:35;1.70;99.90
20400;DHT22;10359;53.596;22.520;2022-10-14T05:44:10;1.80;99.90
20400;DHT22;10359;53.596;22.520;2022-10-14T05:46:40;1.90;99.90
20400;DHT22;10359;53.596;22.520;2022-10-14T05:49:11;2.10;99.90
20400;DHT22;10359;53.596;22.520;2022-10-14T05:51:40;2.30;99.90
20400;DHT22;10359;53.596;22.520;2022-10-14T05:54:10;2.40;99.90
20400;DHT22;10359;53.596;22.520;2022-10-14T05:56:39;2.60;99.90
20400;DHT22;10359;53.596;22.520;2022-10-14T05:59:09;2.80;99.90
20400;DHT22;10359;53.596;22.520;2022-10-14T06:01:41;2.90;99.90
20400;DHT22;10359;53.596;22.520;2022-10-14T06:04:16;2.90;99.90
20400;DHT22;10359;53.596;22.520;2022-10-14T06:06:46;3.00;99.90
20400;DHT22;10359;53.596;22.520;2022-10-14T06:09:16;3.20;99.90
20400;DHT22;10359;53.596;22.520;2022-10-14T06:11:45;3.20;99.90
20400;DHT22;10359;53.596;22.520;2022-10-14T06:14:15;3.40;99.90
20400;DHT22;10359;53.596;22.520;2022-10-14T06:16:49;3.50;99.90
20400;DHT22;10359;53.596;22.520;2022-10-14T06:19:18;3.60;99.90
20400;DHT22;10359;53.596;22.520;2022-10-14T06:21:49;3.90;99.90
20400;DHT22;10359;53.596;22.520;2022-10-14T06:24:17;4.10;99.90
20400;DHT22;10359;53.596;22.520;2022-10-14T06:26:47;4.40;99.90
20400;DHT22;10359;53.596;22.520;2022-10-14T06:29:16;4.70;99.90
20400;DHT22;10359;53.596;22.520;2022-10-14T06:31:47;4.90;99.90
20400;DHT22;10359;53.596;22.520;2022-10-14T06:34:16;5.10;99.90
20400;DHT22;10359;53.596;22.520;2022-10-14T06:36:49;5.40;99.90
20400;DHT22;10359;53.596;22.520;2022-10-14T06:39:18;5.70;99.90
20400;DHT22;10359;53.596;22.520;2022-10-14T06:41:47;6.00;99.90
20400;DHT22;10359;53.596;22.520;2022-10-14T06:44:16;6.40;99.90
20400;DHT22;10359;53.596;22.520;2022-10-14T06:46:46;6.60;99.90
20400;DHT22;10359;53.596;22.520;2022-10-14T06:49:15;7.00;99.90
20400;DHT22;10359;53.596;22.520;2022-10-14T06:51:44;7.20;99.90
20400;DHT22;10359;53.596;22.520;2022-10-14T06:54:14;7.30;99.90
20400;DHT22;10359;53.596;22.520;2022-10-14T06:56:43;7.60;99.90
20400;DHT22;10359;53.596;22.520;2022-10-14T06:59:12;7.80;99.90
20400;DHT22;10359;53.596;22.520;2022-10-14T07:01:42;8.00;99.90
20400;DHT22;10359;53.596;22.520;2022-10-14T07:04:12;8.10;99.90
20400;DHT22;10359;53.596;22.520;2022-10-14T07:06:41;8.40;99.90
20400;DHT22;10359;53.596;22.520;2022-10-14T07:09:11;8.70;99.90
20400;DHT22;10359;53.596;22.520;2022-10-14T07:11:41;8.90;99.90
20400;DHT22;10359;53.596;22.520;2022-10-14T07:14:10;9.10;99.90
20400;DHT22;10359;53.596;22.520;2022-10-14T07:16:42;9.30;99.90
20400;DHT22;10359;53.596;22.520;2022-10-14T07:19:12;9.30;99.90
20400;DHT22;10359;53.596;22.520;2022-10-14T07:21:41;9.20;99.90
20400;DHT22;10359;53.596;22.520;2022-10-14T07:24:13;9.20;99.90
20400;DHT22;10359;53.596;22.520;2022-10-14T07:26:42;9.30;99.90
20400;DHT22;10359;53.596;22.520;2022-10-14T07:29:11;9.40;99.90
20400;DHT22;10359;53.596;22.520;2022-10-14T07:31:40;9.50;99.90
20400;DHT22;10359;53.596;22.520;2022-10-14T07:34:09;9.60;99.90
20400;DHT22;10359;53.596;22.520;2022-10-14T07:36:40;9.80;99.90
20400;DHT22;10359;53.596;22.520;2022-10-14T07:39:10;9.70;99.90
20400;DHT22;10359;53.596;22.520;2022-10-14T07:41:38;9.80;99.90
20400;DHT22;10359;53.596;22.520;2022-10-14T07:44:08;9.80;99.90
20400;DHT22;10359;53.596;22.520;2022-10-14T07:46:42;10.10;99.90
20400;DHT22;10359;53.596;22.520;2022-10-14T07:49:13;10.30;99.90
20400;DHT22;10359;53.596;22.520;2022-10-14T07:51:44;10.30;99.90
20400;DHT22;10359;53.596;22.520;2022-10-14T07:54:16;10.30;99.90
20400;DHT22;10359;53.596;22.520;2022-10-14T07:56:46;10.50;99.90
20400;DHT22;10359;53.596;22.520;2022-10-14T07:59:17;10.70;99.90
20400;DHT22;10359;53.596;22.520;2022-10-14T08:01:47;10.90;99.90
20400;DHT22;10359;53.596;22.520;2022-10-14T08:04:17;10.80;99.90
20400;DHT22;10359;53.596;22.520;2022-10-14T08:06:48;10.70;99.90
20400;DHT22;10359;53.596;22.520;2022-10-14T08:09:19;10.60;99.90
20400;DHT22;10359;53.596;22.520;2022-10-14T08:11:48;10.60;99.90
20400;DHT22;10359;53.596;22.520;2022-10-14T08:14:18;10.60;99.90
20400;DHT22;10359;53.596;22.520;2022-10-14T08:16:47;11.00;99.90
20400;DHT22;10359;53.596;22.520;2022-10-14T08:19:16;11.20;99.90
20400;DHT22;10359;53.596;22.520;2022-10-14T08:21:45;11.40;99.90
20400;DHT22;10359;53.596;22.520;2022-10-14T08:24:16;11.60;99.90
20400;DHT22;10359;53.596;22.520;2022-10-14T08:26:50;11.70;99.90
20400;DHT22;10359;53.596;22.520;2022-10-14T08:29:20;11.90;99.90
20400;DHT22;10359;53.596;22.520;2022-10-14T08:31:50;11.90;99.90
20400;DHT22;10359;53.596;22.520;2022-10-14T08:34:20;12.10;99.90
20400;DHT22;10359;53.596;22.520;2022-10-14T08:36:50;12.30;99.90
20400;DHT22;10359;53.596;22.520;2022-10-14T08:39:21;12.60;99.90
20400;DHT22;10359;53.596;22.520;2022-10-14T08:44:48;13.00;99.90
20400;DHT22;10359;53.596;22.520;2022-10-14T08:47:22;13.20;99.90
20400;DHT22;10359;53.596;22.520;2022-10-14T08:49:58;13.40;99.90
20400;DHT22;10359;53.596;22.520;2022-10-14T08:52:35;13.60;99.90
20400;DHT22;10359;53.596;22.520;2022-10-14T08:55:19;13.90;99.90
20400;DHT22;10359;53.596;22.520;2022-10-14T08:57:55;14.00;99.90
20400;DHT22;10359;53.596;22.520;2022-10-14T09:00:26;13.80;99.90
20400;DHT22;10359;53.596;22.520;2022-10-14T09:02:58;13.70;99.90
20400;DHT22;10359;53.596;22.520;2022-10-14T09:05:27;13.70;99.90
20400;DHT22;10359;53.596;22.520;2022-10-14T09:07:57;13.60;99.90
20400;DHT22;10359;53.596;22.520;2022-10-14T09:10:32;13.60;99.90
20400;DHT22;10359;53.596;22.520;2022-10-14T09:13:09;13.70;99.90
20400;DHT22;10359;53.596;22.520;2022-10-14T09:15:41;13.40;99.90
20400;DHT22;10359;53.596;22.520;2022-10-14T09:18:19;13.70;99.90
20400;DHT22;10359;53.596;22.520;2022-10-14T09:20:49;14.00;99.90
20400;DHT22;10359;53.596;22.520;2022-10-14T09:23:20;14.00;99.90
20400;DHT22;10359;53.596;22.520;2022-10-14T09:25:57;14.10;99.90
20400;DHT22;10359;53.596;22.520;2022-10-14T09:28:35;14.20;99.90
20400;DHT22;10359;53.596;22.520;2022-10-14T09:31:13;14.20;99.90
20400;DHT22;10359;53.596;22.520;2022-10-14T09:33:52;14.30;99.90
20400;DHT22;10359;53.596;22.520;2022-10-14T09:36:30;14.30;99.90
20400;DHT22;10359;53.596;22.520;2022-10-14T09:39:04;14.40;99.90
20400;DHT22;10359;53.596;22.520;2022-10-14T09:41:36;14.60;99.90
20400;DHT22;10359;53.596;22.520;2022-10-14T09:44:18;14.70;99.90
20400;DHT22;10359;53.596;22.520;2022-10-14T09:46:51;15.30;99.90
20400;DHT22;10359;53.596;22.520;2022-10-14T09:49:28;15.60;99.90
20400;DHT22;10359;53.596;22.520;2022-10-14T09:52:01;15.80;99.90
20400;DHT22;10359;53.596;22.520;2022-10-14T09:54:31;15.60;99.90
20400;DHT22;10359;53.596;22.520;2022-10-14T09:57:14;15.40;99.90
20400;DHT22;10359;53.596;22.520;2022-10-14T09:59:50;15.10;99.90
20400;DHT22;10359;53.596;22.520;2022-10-14T10:02:23;14.80;99.90
20400;DHT22;10359;53.596;22.520;2022-10-14T10:04:53;14.70;99.90
20400;DHT22;10359;53.596;22.520;2022-10-14T10:07:31;14.60;99.90
20400;DHT22;10359;53.596;22.520;2022-10-14T10:10:08;14.60;99.90
20400;DHT22;10359;53.596;22.520;2022-10-14T10:12:46;14.50;99.90
20400;DHT22;10359;53.596;22.520;2022-10-14T10:15:18;14.40;99.90
20400;DHT22;10359;53.596;22.520;2022-10-14T10:17:48;14.40;99.90
20400;DHT22;10359;53.596;22.520;2022-10-14T10:20:21;14.50;99.90
20400;DHT22;10359;53.596;22.520;2022-10-14T10:23:20;14.50;99.90
20400;DHT22;10359;53.596;22.520;2022-10-14T10:25:51;14.60;99.90
20400;DHT22;10359;53.596;22.520;2022-10-14T10:28:26;14.60;99.90
20400;DHT22;10359;53.596;22.520;2022-10-14T10:31:04;14.60;99.90
20400;DHT22;10359;53.596;22.520;2022-10-14T10:33:41;14.70;99.90
20400;DHT22;10359;53.596;22.520;2022-10-14T10:36:19;14.70;99.90
20400;DHT22;10359;53.596;22.520;2022-10-14T10:38:57;14.70;99.90
20400;DHT22;10359;53.596;22.520;2022-10-14T10:41:45;14.90;99.90
20400;DHT22;10359;53.596;22.520;2022-10-14T10:44:36;15.20;99.90
20400;DHT22;10359;53.596;22.520;2022-10-14T10:47:19;15.40;99.90
20400;DHT22;10359;53.596;22.520;2022-10-14T10:50:02;15.70;99.90
20400;DHT22;10359;53.596;22.520;2022-10-14T10:52:52;16.20;99.90
20400;DHT22;10359;53.596;22.520;2022-10-14T10:55:33;16.40;99.90
20400;DHT22;10359;53.596;22.520;2022-10-14T10:58:14;16.40;99.90
20400;DHT22;10359;53.596;22.520;2022-10-14T11:00:53;16.10;99.90
20400;DHT22;10359;53.596;22.520;2022-10-14T11:03:48;16.20;99.90
20400;DHT22;10359;53.596;22.520;2022-10-14T11:06:25;16.40;99.90
20400;DHT22;10359;53.596;22.520;2022-10-14T11:09:14;16.40;99.90
20400;DHT22;10359;53.596;22.520;2022-10-14T11:12:09;16.20;99.90
20400;DHT22;10359;53.596;22.520;2022-10-14T11:14:52;16.00;99.90
20400;DHT22;10359;53.596;22.520;2022-10-14T11:17:32;16.10;99.90
20400;DHT22;10359;53.596;22.520;2022-10-14T11:20:09;16.00;99.90
20400;DHT22;10359;53.596;22.520;2022-10-14T11:22:53;16.10;99.90
20400;DHT22;10359;53.596;22.520;2022-10-14T11:25:40;16.40;99.90
20400;DHT22;10359;53.596;22.520;2022-10-14T11:28:17;16.80;99.90
20400;DHT22;10359;53.596;22.520;2022-10-14T11:30:59;17.00;99.90
20400;DHT22;10359;53.596;22.520;2022-10-14T11:33:50;17.10;99.90
20400;DHT22;10359;53.596;22.520;2022-10-14T11:36:29;17.10;99.90
20400;DHT22;10359;53.596;22.520;2022-10-14T11:39:11;16.90;99.90
20400;DHT22;10359;53.596;22.520;2022-10-14T11:41:57;16.90;99.90
20400;DHT22;10359;53.596;22.520;2022-10-14T11:44:32;16.60;99.90
20400;DHT22;10359;53.596;22.520;2022-10-14T11:47:11;16.30;99.90
20400;DHT22;10359;53.596;22.520;2022-10-14T11:49:47;16.40;99.90
20400;DHT22;10359;53.596;22.520;2022-10-14T11:52:24;16.50;99.90
20400;DHT22;10359;53.596;22.520;2022-10-14T11:54:59;16.40;99.90
20400;DHT22;10359;53.596;22.520;2022-10-14T11:57:34;16.60;99.90
20400;DHT22;10359;53.596;22.520;2022-10-14T12:00:10;16.60;99.90
20400;DHT22;10359;53.596;22.520;2022-10-14T12:02:46;16.60;99.90
20400;DHT22;10359;53.596;22.520;2022-10-14T12:05:25;16.60;99.90
20400;DHT22;10359;53.596;22.520;2022-10-14T12:08:05;16.90;99.90
20400;DHT22;10359;53.596;22.520;2022-10-14T12:10:41;17.30;99.90
20400;DHT22;10359;53.596;22.520;2022-10-14T12:13:15;17.60;99.90
20400;DHT22;10359;53.596;22.520;2022-10-14T12:15:49;17.70;99.90
20400;DHT22;10359;53.596;22.520;2022-10-14T12:18:19;17.90;99.90
20400;DHT22;10359;53.596;22.520;2022-10-14T12:20:56;17.70;99.90
20400;DHT22;10359;53.596;22.520;2022-10-14T12:23:31;17.50;99.90
20400;DHT22;10359;53.596;22.520;2022-10-14T12:26:05;17.50;99.90
20400;DHT22;10359;53.596;22.520;2022-10-14T12:28:38;17.50;99.90
20400;DHT22;10359;53.596;22.520;2022-10-14T12:31:31;17.20;99.90
20400;DHT22;10359;53.596;22.520;2022-10-14T12:37:40;16.70;99.90
20400;DHT22;10359;53.596;22.520;2022-10-14T12:40:27;16.50;99.90
20400;DHT22;10359;53.596;22.520;2022-10-14T12:43:15;16.20;99.90
20400;DHT22;10359;53.596;22.520;2022-10-14T12:46:00;16.30;99.90
20400;DHT22;10359;53.596;22.520;2022-10-14T12:48:32;16.30;99.90
20400;DHT22;10359;53.596;22.520;2022-10-14T12:51:10;16.30;99.90
20400;DHT22;10359;53.596;22.520;2022-10-14T12:53:51;16.40;99.90
20400;DHT22;10359;53.596;22.520;2022-10-14T12:56:29;16.40;99.90
20400;DHT22;10359;53.596;22.520;2022-10-14T12:59:00;16.40;99.90
20400;DHT22;10359;53.596;22.520;2022-10-14T13:01:32;16.30;99.90
20400;DHT22;10359;53.596;22.520;2022-10-14T13:04:05;16.40;99.90
20400;DHT22;10359;53.596;22.520;2022-10-14T13:06:37;16.50;99.90
20400;DHT22;10359;53.596;22.520;2022-10-14T13:09:40;16.80;99.90
20400;DHT22;10359;53.596;22.520;2022-10-14T13:18:50;16.60;99.90
20400;DHT22;10359;53.596;22.520;2022-10-14T13:21:48;16.40;99.90
20400;DHT22;10359;53.596;22.520;2022-10-14T13:24:25;16.20;99.90
20400;DHT22;10359;53.596;22.520;2022-10-14T13:27:07;16.10;99.90
20400;DHT22;10359;53.596;22.520;2022-10-14T13:29:53;15.90;99.90
20400;DHT22;10359;53.596;22.520;2022-10-14T13:32:31;15.70;99.90
20400;DHT22;10359;53.596;22.520;2022-10-14T13:35:11;15.50;99.90
20400;DHT22;10359;53.596;22.520;2022-10-14T13:37:44;15.40;99.90
20400;DHT22;10359;53.596;22.520;2022-10-14T13:40:20;15.20;99.90
20400;DHT22;10359;53.596;22.520;2022-10-14T13:42:54;15.10;99.90
20400;DHT22;10359;53.596;22.520;2022-10-14T13:45:30;14.90;99.90
20400;DHT22;10359;53.596;22.520;2022-10-14T13:48:08;14.80;99.90
20400;DHT22;10359;53.596;22.520;2022-10-14T13:50:41;14.70;99.90
20400;DHT22;10359;53.596;22.520;2022-10-14T13:53:16;14.70;99.90
20400;DHT22;10359;53.596;22.520;2022-10-14T13:55:46;14.60;99.90
20400;DHT22;10359;53.596;22.520;2022-10-14T13:58:23;14.60;99.90
20400;DHT22;10359;53.596;22.520;2022-10-14T14:01:00;14.60;99.90
20400;DHT22;10359;53.596;22.520;2022-10-14T14:03:33;14.60;99.90
20400;DHT22;10359;53.596;22.520;2022-10-14T14:06:08;14.60;99.90
20400;DHT22;10359;53.596;22.520;2022-10-14T14:08:43;14.50;99.90
20400;DHT22;10359;53.596;22.520;2022-10-14T14:11:19;14.40;99.90
20400;DHT22;10359;53.596;22.520;2022-10-14T14:13:55;14.30;99.90
20400;DHT22;10359;53.596;22.520;2022-10-14T14:16:32;14.30;99.90
20400;DHT22;10359;53.596;22.520;2022-10-14T14:19:05;14.30;99.90
20400;DHT22;10359;53.596;22.520;2022-10-14T14:21:36;14.40;99.90
20400;DHT22;10359;53.596;22.520;2022-10-14T14:24:18;14.40;99.90
20400;DHT22;10359;53.596;22.520;2022-10-14T14:26:47;14.50;99.90
20400;DHT22;10359;53.596;22.520;2022-10-14T14:29:19;14.50;99.90
20400;DHT22;10359;53.596;22.520;2022-10-14T14:31:48;14.30;99.90
20400;DHT22;10359;53.596;22.520;2022-10-14T14:34:36;14.20;99.90
20400;DHT22;10359;53.596;22.520;2022-10-14T14:37:10;14.10;99.90
20400;DHT22;10359;53.596;22.520;2022-10-14T14:40:01;14.00;99.90
20400;DHT22;10359;53.596;22.520;2022-10-14T14:42:33;14.10;99.90
20400;DHT22;10359;53.596;22.520;2022-10-14T14:45:10;14.10;99.90
20400;DHT22;10359;53.596;22.520;2022-10-14T14:47:41;14.30;99.90
20400;DHT22;10359;53.596;22.520;2022-10-14T14:50:13;14.40;99.90
20400;DHT22;10359;53.596;22.520;2022-10-14T14:53:01;14.40;99.90
20400;DHT22;10359;53.596;22.520;2022-10-14T14:55:41;14.30;99.90
20400;DHT22;10359;53.596;22.520;2022-10-14T14:58:22;14.20;99.90
20400;DHT22;10359;53.596;22.520;2022-10-14T15:00:54;14.10;99.90
20400;DHT22;10359;53.596;22.520;2022-10-14T15:03:25;14.10;99.90
20400;DHT22;10359;53.596;22.520;2022-10-14T15:05:57;14.00;99.90
20400;DHT22;10359;53.596;22.520;2022-10-14T15:08:28;14.00;99.90
20400;DHT22;10359;53.596;22.520;2022-10-14T15:10:58;13.90;99.90
20400;DHT22;10359;53.596;22.520;2022-10-14T15:13:43;13.90;99.90
20400;DHT22;10359;53.596;22.520;2022-10-14T15:16:31;13.90;99.90
20400;DHT22;10359;53.596;22.520;2022-10-14T15:19:29;13.90;99.90
20400;DHT22;10359;53.596;22.520;2022-10-14T15:22:21;13.90;99.90
20400;DHT22;10359;53.596;22.520;2022-10-14T15:25:04;13.80;99.90
20400;DHT22;10359;53.596;22.520;2022-10-14T15:27:50;13.80;99.90
20400;DHT22;10359;53.596;22.520;2022-10-14T15:30:23;13.90;99.90
20400;DHT22;10359;53.596;22.520;2022-10-14T15:32:57;13.80;99.90
20400;DHT22;10359;53.596;22.520;2022-10-14T15:35:27;13.80;99.90
20400;DHT22;10359;53.596;22.520;2022-10-14T15:37:56;13.80;99.90
20400;DHT22;10359;53.596;22.520;2022-10-14T15:40:28;13.80;99.90
20400;DHT22;10359;53.596;22.520;2022-10-14T15:42:57;13.70;99.90
20400;DHT22;10359;53.596;22.520;2022-10-14T15:45:27;13.70;99.90
20400;DHT22;10359;53.596;22.520;2022-10-14T15:48:02;13.70;99.90
20400;DHT22;10359;53.596;22.520;2022-10-14T15:50:36;13.60;99.90
20400;DHT22;10359;53.596;22.520;2022-10-14T15:53:07;13.50;99.90
20400;DHT22;10359;53.596;22.520;2022-10-14T15:55:37;13.50;99.90
20400;DHT22;10359;53.596;22.520;2022-10-14T15:58:07;13.50;99.90
20400;DHT22;10359;53.596;22.520;2022-10-14T16:00:36;13.40;99.90
20400;DHT22;10359;53.596;22.520;2022-10-14T16:03:09;13.30;99.90
20400;DHT22;10359;53.596;22.520;2022-10-14T16:05:40;13.20;99.90
20400;DHT22;10359;53.596;22.520;2022-10-14T16:08:11;13.10;99.90
20400;DHT22;10359;53.596;22.520;2022-10-14T16:10:42;12.80;99.90
20400;DHT22;10359;53.596;22.520;2022-10-14T16:13:12;12.70;99.90
20400;DHT22;10359;53.596;22.520;2022-10-14T16:15:46;12.60;99.90
20400;DHT22;10359;53.596;22.520;2022-10-14T16:18:17;12.50;99.90
20400;DHT22;10359;53.596;22.520;2022-10-14T16:20:48;12.50;99.90
20400;DHT22;10359;53.596;22.520;2022-10-14T16:23:18;12.40;99.90
20400;DHT22;10359;53.596;22.520;2022-10-14T16:25:49;12.30;99.90